sensor_id;sensor_type;location;lat;lon;timestamp;temperature;humidity
17033;DHT22;63208;52.178;21.016;2022-10-26T00:02:03;12.90;99.90
17033;DHT22;63208;52.178;21.016;2022-10-26T00:04:29;12.90;99.90
17033;DHT22;63208;52.178;21.016;2022-10-26T00:06:56;12.90;99.90
17033;DHT22;63208;52.178;21.016;2022-10-26T00:09:23;12.90;99.90
17033;DHT22;63208;52.178;21.016;2022-10-26T00:11:50;13.00;99.90
17033;DHT22;63208;52.178;21.016;2022-10-26T00:14:17;13.00;99.90
17033;DHT22;63208;52.178;21.016;2022-10-26T00:16:45;13.00;99.90
17033;DHT22;63208;52.178;21.016;2022-10-26T00:19:12;12.90;99.90
17033;DHT22;63208;52.178;21.016;2022-10-26T00:21:39;12.90;99.90
17033;DHT22;63208;52.178;21.016;2022-10-26T00:24:06;12.90;99.90
17033;DHT22;63208;52.178;21.016;2022-10-26T00:26:33;13.00;99.90
17033;DHT22;63208;52.178;21.016;2022-10-26T00:28:59;12.90;99.90
17033;DHT22;63208;52.178;21.016;2022-10-26T00:31:26;12.90;99.90
17033;DHT22;63208;52.178;21.016;2022-10-26T00:33:54;12.90;99.90
17033;DHT22;63208;52.178;21.016;2022-10-26T00:36:22;12.90;99.90
17033;DHT22;63208;52.178;21.016;2022-10-26T00:38:49;13.00;99.90
17033;DHT22;63208;52.178;21.016;2022-10-26T00:41:16;13.00;99.90
17033;DHT22;63208;52.178;21.016;2022-10-26T00:43:43;13.00;99.90
17033;DHT22;63208;52.178;21.016;2022-10-26T00:46:11;13.00;99.90
17033;DHT22;63208;52.178;21.016;2022-10-26T00:48:40;13.00;99.90
17033;DHT22;63208;52.178;21.016;2022-10-26T00:51:09;13.00;99.90
17033;DHT22;63208;52.178;21.016;2022-10-26T00:53:38;13.00;99.90
17033;DHT22;63208;52.178;21.016;2022-10-26T00:56:05;13.00;99.90
17033;DHT22;63208;52.178;21.016;2022-10-26T00:58:32;13.00;99.90
17033;DHT22;63208;52.178;21.016;2022-10-26T01:01:00;13.00;99.90
17033;DHT22;63208;52.178;21.016;2022-10-26T01:03:26;13.00;99.90
17033;DHT22;63208;52.178;21.016;2022-10-26T01:05:54;12.90;99.90
17033;DHT22;63208;52.178;21.016;2022-10-26T01:08:23;13.00;99.90
17033;DHT22;63208;52.178;21.016;2022-10-26T01:10:52;13.00;99.90
17033;DHT22;63208;52.178;21.016;2022-10-26T01:13:19;12.90;99.90
17033;DHT22;63208;52.178;21.016;2022-10-26T01:15:47;13.00;99.90
17033;DHT22;63208;52.178;21.016;2022-10-26T01:18:18;13.00;99.90
17033;DHT22;63208;52.178;21.016;2022-10-26T01:20:56;13.00;99.90
17033;DHT22;63208;52.178;21.016;2022-10-26T01:23:30;13.00;99.90
17033;DHT22;63208;52.178;21.016;2022-10-26T01:28:46;13.00;99.90
17033;DHT22;63208;52.178;21.016;2022-10-26T01:31:19;13.00;99.90
17033;DHT22;63208;52.178;21.016;2022-10-26T01:33:49;13.00;99.90
17033;DHT22;63208;52.178;21.016;2022-10-26T01:36:19;12.90;99.90
17033;DHT22;63208;52.178;21.016;2022-10-26T01:38:51;12.90;99.90
17033;DHT22;63208;52.178;21.016;2022-10-26T01:41:21;12.80;99.90
17033;DHT22;63208;52.178;21.016;2022-10-26T01:43:51;12.90;99.90
17033;DHT22;63208;52.178;21.016;2022-10-26T01:46:21;12.80;99.90
17033;DHT22;63208;52.178;21.016;2022-10-26T01:48:49;12.80;99.90
17033;DHT22;63208;52.178;21.016;2022-10-26T01:51:17;12.90;99.90
17033;DHT22;63208;52.178;21.016;2022-10-26T01:53:45;12.80;99.90
17033;DHT22;63208;52.178;21.016;2022-10-26T01:56:12;12.90;99.90
17033;DHT22;63208;52.178;21.016;2022-10-26T01:58:48;12.80;99.90
17033;DHT22;63208;52.178;21.016;2022-10-26T02:01:23;12.70;99.90
17033;DHT22;63208;52.178;21.016;2022-10-26T02:03:54;12.70;99.90
17033;DHT22;63208;52.178;21.016;2022-10-26T02:06:26;12.70;99.90
17033;DHT22;63208;52.178;21.016;2022-10-26T02:08:57;12.70;99.90
17033;DHT22;63208;52.178;21.016;2022-10-26T02:11:30;12.70;99.90
17033;DHT22;63208;52.178;21.016;2022-10-26T02:14:00;12.60;99.90
17033;DHT22;63208;52.178;21.016;2022-10-26T02:16:33;12.60;99.90
17033;DHT22;63208;52.178;21.016;2022-10-26T02:19:04;12.60;99.90
17033;DHT22;63208;52.178;21.016;2022-10-26T02:21:34;12.60;99.90
17033;DHT22;63208;52.178;21.016;2022-10-26T02:24:01;12.60;99.90
17033;DHT22;63208;52.178;21.016;2022-10-26T02:26:29;12.60;99.90
17033;DHT22;63208;52.178;21.016;2022-10-26T02:28:59;12.60;99.90
17033;DHT22;63208;52.178;21.016;2022-10-26T02:31:29;12.50;99.90
17033;DHT22;63208;52.178;21.016;2022-10-26T02:33:58;12.50;99.90
17033;DHT22;63208;52.178;21.016;2022-10-26T02:36:27;12.50;99.90
17033;DHT22;63208;52.178;21.016;2022-10-26T02:38:54;12.50;99.90
17033;DHT22;63208;52.178;21.016;2022-10-26T02:41:22;12.50;99.90
17033;DHT22;63208;52.178;21.016;2022-10-26T02:43:51;12.50;99.90
17033;DHT22;63208;52.178;21.016;2022-10-26T02:46:19;12.50;99.90
17033;DHT22;63208;52.178;21.016;2022-10-26T02:48:48;12.50;99.90
17033;DHT22;63208;52.178;21.016;2022-10-26T02:51:17;12.50;99.90
17033;DHT22;63208;52.178;21.016;2022-10-26T02:53:47;12.40;99.90
17033;DHT22;63208;52.178;21.016;2022-10-26T02:56:16;12.40;99.90
17033;DHT22;63208;52.178;21.016;2022-10-26T02:58:45;12.40;99.90
17033;DHT22;63208;52.178;21.016;2022-10-26T03:01:12;12.50;99.90
17033;DHT22;63208;52.178;21.016;2022-10-26T03:03:39;12.40;99.90
17033;DHT22;63208;52.178;21.016;2022-10-26T03:06:06;12.50;99.90
17033;DHT22;63208;52.178;21.016;2022-10-26T03:08:34;12.40;99.90
17033;DHT22;63208;52.178;21.016;2022-10-26T03:11:01;12.40;99.90
17033;DHT22;63208;52.178;21.016;2022-10-26T03:13:28;12.40;99.90
17033;DHT22;63208;52.178;21.016;2022-10-26T03:15:55;12.40;99.90
17033;DHT22;63208;52.178;21.016;2022-10-26T03:18:22;12.40;99.90
17033;DHT22;63208;52.178;21.016;2022-10-26T03:20:49;12.40;99.90
17033;DHT22;63208;52.178;21.016;2022-10-26T03:23:15;12.40;99.90
17033;DHT22;63208;52.178;21.016;2022-10-26T03:25:43;12.40;99.90
17033;DHT22;63208;52.178;21.016;2022-10-26T03:28:10;12.40;99.90
17033;DHT22;63208;52.178;21.016;2022-10-26T03:30:37;12.30;99.90
17033;DHT22;63208;52.178;21.016;2022-10-26T03:33:04;12.30;99.90
17033;DHT22;63208;52.178;21.016;2022-10-26T03:35:31;12.30;99.90
17033;DHT22;63208;52.178;21.016;2022-10-26T03:37:57;12.30;99.90
17033;DHT22;63208;52.178;21.016;2022-10-26T03:40:24;12.30;99.90
17033;DHT22;63208;52.178;21.016;2022-10-26T03:42:52;12.30;99.90
17033;DHT22;63208;52.178;21.016;2022-10-26T03:45:19;12.30;99.90
17033;DHT22;63208;52.178;21.016;2022-10-26T03:47:46;12.30;99.90
17033;DHT22;63208;52.178;21.016;2022-10-26T03:50:15;12.20;99.90
17033;DHT22;63208;52.178;21.016;2022-10-26T03:52:42;12.20;99.90
17033;DHT22;63208;52.178;21.016;2022-10-26T03:55:09;12.20;99.90
17033;DHT22;63208;52.178;21.016;2022-10-26T03:57:39;12.20;99.90
17033;DHT22;63208;52.178;21.016;2022-10-26T04:00:08;12.30;99.90
17033;DHT22;63208;52.178;21.016;2022-10-26T04:02:35;12.30;99.90
17033;DHT22;63208;52.178;21.016;2022-10-26T04:05:02;12.20;99.90
17033;DHT22;63208;52.178;21.016;2022-10-26T04:07:29;12.20;99.90
17033;DHT22;63208;52.178;21.016;2022-10-26T04:09:56;12.20;99.90
17033;DHT22;63208;52.178;21.016;2022-10-26T04:12:22;12.20;99.90
17033;DHT22;63208;52.178;21.016;2022-10-26T04:14:49;12.20;99.90
17033;DHT22;63208;52.178;21.016;2022-10-26T04:17:17;12.10;99.90
17033;DHT22;63208;52.178;21.016;2022-10-26T04:19:44;12.10;99.90
17033;DHT22;63208;52.178;21.016;2022-10-26T04:22:11;12.10;99.90
17033;DHT22;63208;52.178;21.016;2022-10-26T04:24:37;12.20;99.90
17033;DHT22;63208;52.178;21.016;2022-10-26T04:27:04;12.20;99.90
17033;DHT22;63208;52.178;21.016;2022-10-26T04:29:31;12.20;99.90
17033;DHT22;63208;52.178;21.016;2022-10-26T04:31:58;12.20;99.90
17033;DHT22;63208;52.178;21.016;2022-10-26T04:34:26;12.20;99.90
17033;DHT22;63208;52.178;21.016;2022-10-26T04:36:53;12.20;99.90
17033;DHT22;63208;52.178;21.016;2022-10-26T04:39:20;12.10;99.90
17033;DHT22;63208;52.178;21.016;2022-10-26T04:41:47;12.10;99.90
17033;DHT22;63208;52.178;21.016;2022-10-26T04:44:13;12.10;99.90
17033;DHT22;63208;52.178;21.016;2022-10-26T04:46:40;12.00;99.90
17033;DHT22;63208;52.178;21.016;2022-10-26T04:49:07;12.00;99.90
17033;DHT22;63208;52.178;21.016;2022-10-26T04:51:35;12.00;99.90
17033;DHT22;63208;52.178;21.016;2022-10-26T04:54:02;12.00;99.90
17033;DHT22;63208;52.178;21.016;2022-10-26T04:56:29;12.00;99.90
17033;DHT22;63208;52.178;21.016;2022-10-26T04:58:56;12.10;99.90
17033;DHT22;63208;52.178;21.016;2022-10-26T05:01:23;12.00;99.90
17033;DHT22;63208;52.178;21.016;2022-10-26T05:03:49;12.00;99.90
17033;DHT22;63208;52.178;21.016;2022-10-26T05:06:17;12.00;99.90
17033;DHT22;63208;52.178;21.016;2022-10-26T05:11:22;11.90;99.90
17033;DHT22;63208;52.178;21.016;2022-10-26T05:13:49;11.90;99.90
17033;DHT22;63208;52.178;21.016;2022-10-26T05:16:16;11.90;99.90
17033;DHT22;63208;52.178;21.016;2022-10-26T05:18:43;11.90;99.90
17033;DHT22;63208;52.178;21.016;2022-10-26T05:21:10;10.80;99.90
17033;DHT22;63208;52.178;21.016;2022-10-26T05:29:55;11.90;99.90
17033;DHT22;63208;52.178;21.016;2022-10-26T05:32:22;11.90;99.90
17033;DHT22;63208;52.178;21.016;2022-10-26T05:34:48;11.80;99.90
17033;DHT22;63208;52.178;21.016;2022-10-26T05:37:15;11.80;99.90
17033;DHT22;63208;52.178;21.016;2022-10-26T05:39:42;11.80;99.90
17033;DHT22;63208;52.178;21.016;2022-10-26T05:42:09;11.80;99.90
17033;DHT22;63208;52.178;21.016;2022-10-26T05:47:45;11.70;99.90
17033;DHT22;63208;52.178;21.016;2022-10-26T05:50:12;12.50;99.90
17033;DHT22;63208;52.178;21.016;2022-10-26T05:52:39;11.70;99.90
17033;DHT22;63208;52.178;21.016;2022-10-26T05:55:07;11.80;99.90
17033;DHT22;63208;52.178;21.016;2022-10-26T05:57:34;11.80;99.90
17033;DHT22;63208;52.178;21.016;2022-10-26T06:00:05;11.80;99.90
17033;DHT22;63208;52.178;21.016;2022-10-26T06:02:33;11.80;99.90
17033;DHT22;63208;52.178;21.016;2022-10-26T06:05:09;11.80;99.90
17033;DHT22;63208;52.178;21.016;2022-10-26T06:07:36;11.90;99.90
17033;DHT22;63208;52.178;21.016;2022-10-26T06:10:03;11.90;99.90
17033;DHT22;63208;52.178;21.016;2022-10-26T06:12:30;11.90;99.90
17033;DHT22;63208;52.178;21.016;2022-10-26T06:14:58;11.90;99.90
17033;DHT22;63208;52.178;21.016;2022-10-26T06:17:29;12.30;99.90
17033;DHT22;63208;52.178;21.016;2022-10-26T06:20:26;11.90;99.90
17033;DHT22;63208;52.178;21.016;2022-10-26T06:23:04;11.90;99.90
17033;DHT22;63208;52.178;21.016;2022-10-26T06:25:35;12.00;99.90
17033;DHT22;63208;52.178;21.016;2022-10-26T06:28:11;12.00;99.90
17033;DHT22;63208;52.178;21.016;2022-10-26T06:30:39;12.00;99.90
17033;DHT22;63208;52.178;21.016;2022-10-26T06:33:09;12.00;99.90
17033;DHT22;63208;52.178;21.016;2022-10-26T06:35:41;12.00;99.90
17033;DHT22;63208;52.178;21.016;2022-10-26T06:38:13;12.10;99.90
17033;DHT22;63208;52.178;21.016;2022-10-26T06:40:41;12.10;99.90
17033;DHT22;63208;52.178;21.016;2022-10-26T06:43:09;12.10;99.90
17033;DHT22;63208;52.178;21.016;2022-10-26T06:45:38;12.10;99.90
17033;DHT22;63208;52.178;21.016;2022-10-26T06:48:06;12.10;99.90
17033;DHT22;63208;52.178;21.016;2022-10-26T06:50:35;12.00;99.90
17033;DHT22;63208;52.178;21.016;2022-10-26T06:53:12;12.10;99.90
17033;DHT22;63208;52.178;21.016;2022-10-26T06:55:42;12.10;99.90
17033;DHT22;63208;52.178;21.016;2022-10-26T06:58:10;12.10;99.90
17033;DHT22;63208;52.178;21.016;2022-10-26T07:00:39;12.10;99.90
17033;DHT22;63208;52.178;21.016;2022-10-26T07:03:19;12.10;99.90
17033;DHT22;63208;52.178;21.016;2022-10-26T07:05:46;12.10;99.90
17033;DHT22;63208;52.178;21.016;2022-10-26T07:08:15;12.20;99.90
17033;DHT22;63208;52.178;21.016;2022-10-26T07:10:41;12.20;99.90
17033;DHT22;63208;52.178;21.016;2022-10-26T07:13:08;12.10;99.90
17033;DHT22;63208;52.178;21.016;2022-10-26T07:15:35;12.10;99.90
17033;DHT22;63208;52.178;21.016;2022-10-26T07:18:03;12.10;99.90
17033;DHT22;63208;52.178;21.016;2022-10-26T07:20:31;12.00;99.90
17033;DHT22;63208;52.178;21.016;2022-10-26T07:25:43;12.10;99.90
17033;DHT22;63208;52.178;21.016;2022-10-26T07:28:10;12.10;99.90
17033;DHT22;63208;52.178;21.016;2022-10-26T07:30:37;12.10;99.90
17033;DHT22;63208;52.178;21.016;2022-10-26T07:33:05;12.10;99.90
17033;DHT22;63208;52.178;21.016;2022-10-26T07:35:32;12.10;99.90
17033;DHT22;63208;52.178;21.016;2022-10-26T07:37:59;12.10;99.90
17033;DHT22;63208;52.178;21.016;2022-10-26T07:40:26;12.10;99.90
17033;DHT22;63208;52.178;21.016;2022-10-26T07:42:56;12.00;99.90
17033;DHT22;63208;52.178;21.016;2022-10-26T07:45:23;11.90;99.90
17033;DHT22;63208;52.178;21.016;2022-10-26T07:47:50;11.90;99.90
17033;DHT22;63208;52.178;21.016;2022-10-26T07:50:17;11.90;99.90
17033;DHT22;63208;52.178;21.016;2022-10-26T07:52:44;12.80;99.90
17033;DHT22;63208;52.178;21.016;2022-10-26T07:55:11;11.80;99.90
17033;DHT22;63208;52.178;21.016;2022-10-26T07:57:37;11.80;99.90
17033;DHT22;63208;52.178;21.016;2022-10-26T08:00:07;11.80;99.90
17033;DHT22;63208;52.178;21.016;2022-10-26T08:02:34;11.90;99.90
17033;DHT22;63208;52.178;21.016;2022-10-26T08:05:01;11.80;99.90
17033;DHT22;63208;52.178;21.016;2022-10-26T08:07:28;11.80;99.90
17033;DHT22;63208;52.178;21.016;2022-10-26T08:09:55;11.90;99.90
17033;DHT22;63208;52.178;21.016;2022-10-26T08:12:21;11.80;99.90
17033;DHT22;63208;52.178;21.016;2022-10-26T08:14:49;11.70;99.90
17033;DHT22;63208;52.178;21.016;2022-10-26T08:17:17;11.70;99.90
17033;DHT22;63208;52.178;21.016;2022-10-26T08:19:46;11.80;99.90
17033;DHT22;63208;52.178;21.016;2022-10-26T08:22:13;11.60;99.90
17033;DHT22;63208;52.178;21.016;2022-10-26T08:24:39;11.60;99.90
17033;DHT22;63208;52.178;21.016;2022-10-26T08:27:08;11.60;99.90
17033;DHT22;63208;52.178;21.016;2022-10-26T08:29:35;11.50;99.90
17033;DHT22;63208;52.178;21.016;2022-10-26T08:32:02;11.60;99.90
17033;DHT22;63208;52.178;21.016;2022-10-26T08:34:30;11.60;99.90
17033;DHT22;63208;52.178;21.016;2022-10-26T08:36:56;11.70;99.90
17033;DHT22;63208;52.178;21.016;2022-10-26T08:39:23;11.80;99.90
17033;DHT22;63208;52.178;21.016;2022-10-26T08:41:54;11.80;99.90
17033;DHT22;63208;52.178;21.016;2022-10-26T08:44:23;11.80;99.90
17033;DHT22;63208;52.178;21.016;2022-10-26T08:46:50;11.80;99.90
17033;DHT22;63208;52.178;21.016;2022-10-26T08:49:21;11.80;99.90
17033;DHT22;63208;52.178;21.016;2022-10-26T08:54:55;11.80;99.90
17033;DHT22;63208;52.178;21.016;2022-10-26T08:57:24;11.70;99.90
17033;DHT22;63208;52.178;21.016;2022-10-26T08:59:53;11.70;99.90
17033;DHT22;63208;52.178;21.016;2022-10-26T09:02:21;11.70;99.90
17033;DHT22;63208;52.178;21.016;2022-10-26T09:04:49;11.70;99.90
17033;DHT22;63208;52.178;21.016;2022-10-26T09:07:20;11.80;99.90
17033;DHT22;63208;52.178;21.016;2022-10-26T09:09:52;11.80;99.90
17033;DHT22;63208;52.178;21.016;2022-10-26T09:15:21;11.90;99.90
17033;DHT22;63208;52.178;21.016;2022-10-26T09:17:56;12.10;99.90
17033;DHT22;63208;52.178;21.016;2022-10-26T09:20:34;12.20;99.90
17033;DHT22;63208;52.178;21.016;2022-10-26T09:23:24;12.20;99.90
17033;DHT22;63208;52.178;21.016;2022-10-26T09:25:56;12.50;99.90
17033;DHT22;63208;52.178;21.016;2022-10-26T09:28:24;12.20;99.90
17033;DHT22;63208;52.178;21.016;2022-10-26T09:30:53;12.20;99.90
17033;DHT22;63208;52.178;21.016;2022-10-26T09:36:26;12.20;99.90
17033;DHT22;63208;52.178;21.016;2022-10-26T09:38:55;12.20;99.90
17033;DHT22;63208;52.178;21.016;2022-10-26T09:41:26;12.20;99.90
17033;DHT22;63208;52.178;21.016;2022-10-26T09:43:55;12.30;99.90
17033;DHT22;63208;52.178;21.016;2022-10-26T09:46:25;12.30;99.90
17033;DHT22;63208;52.178;21.016;2022-10-26T09:48:53;12.30;99.90
17033;DHT22;63208;52.178;21.016;2022-10-26T09:51:21;12.40;99.90
17033;DHT22;63208;52.178;21.016;2022-10-26T09:53:48;12.40;99.90
17033;DHT22;63208;52.178;21.016;2022-10-26T09:56:15;12.30;99.90
17033;DHT22;63208;52.178;21.016;2022-10-26T09:58:43;12.40;99.90
17033;DHT22;63208;52.178;21.016;2022-10-26T10:01:22;12.40;99.90
17033;DHT22;63208;52.178;21.016;2022-10-26T10:04:08;12.40;99.90
17033;DHT22;63208;52.178;21.016;2022-10-26T10:09:33;12.60;99.90
17033;DHT22;63208;52.178;21.016;2022-10-26T10:12:00;12.80;99.90
17033;DHT22;63208;52.178;21.016;2022-10-26T10:14:28;12.80;99.90
17033;DHT22;63208;52.178;21.016;2022-10-26T10:16:56;12.80;99.90
17033;DHT22;63208;52.178;21.016;2022-10-26T10:19:26;12.80;99.90
17033;DHT22;63208;52.178;21.016;2022-10-26T10:21:54;12.80;99.90
17033;DHT22;63208;52.178;21.016;2022-10-26T10:24:21;12.80;99.90
17033;DHT22;63208;52.178;21.016;2022-10-26T10:26:55;12.70;99.90
17033;DHT22;63208;52.178;21.016;2022-10-26T10:29:24;12.80;99.90
17033;DHT22;63208;52.178;21.016;2022-10-26T10:31:54;12.70;99.90
17033;DHT22;63208;52.178;21.016;2022-10-26T10:34:20;12.70;99.90
17033;DHT22;63208;52.178;21.016;2022-10-26T10:36:49;12.70;99.90
17033;DHT22;63208;52.178;21.016;2022-10-26T10:39:23;12.80;99.90
17033;DHT22;63208;52.178;21.016;2022-10-26T10:41:52;12.90;99.90
17033;DHT22;63208;52.178;21.016;2022-10-26T10:44:19;12.90;99.90
17033;DHT22;63208;52.178;21.016;2022-10-26T10:59:46;13.10;99.90
17033;DHT22;63208;52.178;21.016;2022-10-26T11:05:16;13.10;99.90
17033;DHT22;63208;52.178;21.016;2022-10-26T11:07:46;13.20;99.90
17033;DHT22;63208;52.178;21.016;2022-10-26T11:10:16;13.20;99.90
17033;DHT22;63208;52.178;21.016;2022-10-26T11:12:46;13.30;99.90
17033;DHT22;63208;52.178;21.016;2022-10-26T11:15:15;13.30;99.90
17033;DHT22;63208;52.178;21.016;2022-10-26T11:17:46;13.20;99.90
17033;DHT22;63208;52.178;21.016;2022-10-26T11:20:16;13.20;99.90
17033;DHT22;63208;52.178;21.016;2022-10-26T11:25:43;13.50;99.90
17033;DHT22;63208;52.178;21.016;2022-10-26T11:28:13;13.00;99.90
17033;DHT22;63208;52.178;21.016;2022-10-26T11:30:44;13.00;99.90
17033;DHT22;63208;52.178;21.016;2022-10-26T11:33:13;13.00;99.90
17033;DHT22;63208;52.178;21.016;2022-10-26T11:35:42;13.00;99.90
17033;DHT22;63208;52.178;21.016;2022-10-26T11:38:11;13.00;99.90
17033;DHT22;63208;52.178;21.016;2022-10-26T11:40:41;13.10;99.90
17033;DHT22;63208;52.178;21.016;2022-10-26T11:43:12;13.10;99.90
17033;DHT22;63208;52.178;21.016;2022-10-26T11:45:40;13.10;99.90
17033;DHT22;63208;52.178;21.016;2022-10-26T11:48:13;13.10;99.90
17033;DHT22;63208;52.178;21.016;2022-10-26T11:50:40;13.10;99.90
17033;DHT22;63208;52.178;21.016;2022-10-26T11:53:09;13.20;99.90
17033;DHT22;63208;52.178;21.016;2022-10-26T11:55:38;13.20;99.90
17033;DHT22;63208;52.178;21.016;2022-10-26T11:58:08;13.30;99.90
17033;DHT22;63208;52.178;21.016;2022-10-26T12:00:44;13.30;99.90
17033;DHT22;63208;52.178;21.016;2022-10-26T12:03:31;13.40;99.90
17033;DHT22;63208;52.178;21.016;2022-10-26T12:08:26;13.60;99.90
17033;DHT22;63208;52.178;21.016;2022-10-26T12:10:55;13.70;99.90
17033;DHT22;63208;52.178;21.016;2022-10-26T12:13:24;13.60;99.90
17033;DHT22;63208;52.178;21.016;2022-10-26T12:15:53;13.60;99.90
17033;DHT22;63208;52.178;21.016;2022-10-26T12:18:24;13.40;99.90
17033;DHT22;63208;52.178;21.016;2022-10-26T12:20:54;13.50;99.90
17033;DHT22;63208;52.178;21.016;2022-10-26T12:23:27;13.60;99.90
17033;DHT22;63208;52.178;21.016;2022-10-26T12:28:39;13.60;99.90
17033;DHT22;63208;52.178;21.016;2022-10-26T12:33:58;13.60;99.90
17033;DHT22;63208;52.178;21.016;2022-10-26T12:36:47;13.50;99.90
17033;DHT22;63208;52.178;21.016;2022-10-26T12:39:25;13.50;99.90
17033;DHT22;63208;52.178;21.016;2022-10-26T12:41:54;13.50;99.90
17033;DHT22;63208;52.178;21.016;2022-10-26T12:44:31;13.40;99.90
17033;DHT22;63208;52.178;21.016;2022-10-26T12:46:58;13.50;99.90
17033;DHT22;63208;52.178;21.016;2022-10-26T12:55:18;13.50;99.90
17033;DHT22;63208;52.178;21.016;2022-10-26T12:57:49;13.50;99.90
17033;DHT22;63208;52.178;21.016;2022-10-26T13:00:17;13.60;99.90
17033;DHT22;63208;52.178;21.016;2022-10-26T13:02:50;13.70;99.90
17033;DHT22;63208;52.178;21.016;2022-10-26T13:08:05;13.80;99.90
17033;DHT22;63208;52.178;21.016;2022-10-26T13:10:34;13.80;99.90
17033;DHT22;63208;52.178;21.016;2022-10-26T13:13:01;13.70;99.90
17033;DHT22;63208;52.178;21.016;2022-10-26T13:24:01;13.80;99.90
17033;DHT22;63208;52.178;21.016;2022-10-26T13:27:20;13.70;99.90
17033;DHT22;63208;52.178;21.016;2022-10-26T13:29:21;13.70;99.90
17033;DHT22;63208;52.178;21.016;2022-10-26T13:31:54;13.80;99.90
17033;DHT22;63208;52.178;21.016;2022-10-26T13:34:22;13.90;99.90
17033;DHT22;63208;52.178;21.016;2022-10-26T13:36:50;13.90;99.90
17033;DHT22;63208;52.178;21.016;2022-10-26T13:39:19;13.80;99.90
17033;DHT22;63208;52.178;21.016;2022-10-26T13:41:49;13.80;99.90
17033;DHT22;63208;52.178;21.016;2022-10-26T13:44:18;13.90;99.90
17033;DHT22;63208;52.178;21.016;2022-10-26T13:46:46;13.90;99.90
17033;DHT22;63208;52.178;21.016;2022-10-26T13:49:19;13.80;99.90
17033;DHT22;63208;52.178;21.016;2022-10-26T13:51:49;14.00;99.90
17033;DHT22;63208;52.178;21.016;2022-10-26T13:54:20;14.00;99.90
17033;DHT22;63208;52.178;21.016;2022-10-26T13:56:56;13.90;99.90
17033;DHT22;63208;52.178;21.016;2022-10-26T13:59:24;14.00;99.90
17033;DHT22;63208;52.178;21.016;2022-10-26T14:02:04;13.90;99.90
17033;DHT22;63208;52.178;21.016;2022-10-26T14:04:30;13.90;99.90
17033;DHT22;63208;52.178;21.016;2022-10-26T14:06:57;13.80;99.90
17033;DHT22;63208;52.178;21.016;2022-10-26T14:09:24;13.80;99.90
17033;DHT22;63208;52.178;21.016;2022-10-26T14:11:51;13.80;99.90
17033;DHT22;63208;52.178;21.016;2022-10-26T14:14:20;13.90;99.90
17033;DHT22;63208;52.178;21.016;2022-10-26T14:16:48;13.90;99.90
17033;DHT22;63208;52.178;21.016;2022-10-26T14:19:16;13.80;99.90
17033;DHT22;63208;52.178;21.016;2022-10-26T14:21:45;13.70;99.90
17033;DHT22;63208;52.178;21.016;2022-10-26T14:24:19;14.10;99.90
17033;DHT22;63208;52.178;21.016;2022-10-26T14:26:47;13.70;99.90
17033;DHT22;63208;52.178;21.016;2022-10-26T14:29:17;13.60;99.90
17033;DHT22;63208;52.178;21.016;2022-10-26T14:31:47;13.60;99.90
17033;DHT22;63208;52.178;21.016;2022-10-26T14:37:20;13.40;99.90
17033;DHT22;63208;52.178;21.016;2022-10-26T14:39:47;13.50;99.90
17033;DHT22;63208;52.178;21.016;2022-10-26T14:45:22;13.50;99.90
17033;DHT22;63208;52.178;21.016;2022-10-26T14:47:51;13.50;99.90
17033;DHT22;63208;52.178;21.016;2022-10-26T14:50:18;13.50;99.90
17033;DHT22;63208;52.178;21.016;2022-10-26T14:52:48;13.50;99.90
17033;DHT22;63208;52.178;21.016;2022-10-26T14:55:15;13.50;99.90
17033;DHT22;63208;52.178;21.016;2022-10-26T14:57:46;13.40;99.90
17033;DHT22;63208;52.178;21.016;2022-10-26T15:08:43;13.40;99.90
17033;DHT22;63208;52.178;21.016;2022-10-26T15:11:11;14.40;99.90
17033;DHT22;63208;52.178;21.016;2022-10-26T15:13:47;13.20;99.90
17033;DHT22;63208;52.178;21.016;2022-10-26T15:16:15;13.20;99.90
17033;DHT22;63208;52.178;21.016;2022-10-26T15:18:43;13.20;99.90
17033;DHT22;63208;52.178;21.016;2022-10-26T15:21:17;13.10;99.90
17033;DHT22;63208;52.178;21.016;2022-10-26T15:23:48;13.00;99.90
17033;DHT22;63208;52.178;21.016;2022-10-26T15:26:15;12.90;99.90
17033;DHT22;63208;52.178;21.016;2022-10-26T15:28:42;13.00;99.90
17033;DHT22;63208;52.178;21.016;2022-10-26T15:31:23;12.90;99.90
17033;DHT22;63208;52.178;21.016;2022-10-26T15:36:59;12.80;99.90
17033;DHT22;63208;52.178;21.016;2022-10-26T15:42:30;12.90;99.90
17033;DHT22;63208;52.178;21.016;2022-10-26T15:44:57;12.80;99.90
17033;DHT22;63208;52.178;21.016;2022-10-26T15:47:26;12.80;99.90
17033;DHT22;63208;52.178;21.016;2022-10-26T15:49:54;12.80;99.90
17033;DHT22;63208;52.178;21.016;2022-10-26T15:52:20;12.80;99.90
17033;DHT22;63208;52.178;21.016;2022-10-26T15:54:47;12.80;99.90
17033;DHT22;63208;52.178;21.016;2022-10-26T15:57:14;12.70;99.90
17033;DHT22;63208;52.178;21.016;2022-10-26T15:59:42;12.70;99.90
17033;DHT22;63208;52.178;21.016;2022-10-26T16:02:12;12.70;99.90
17033;DHT22;63208;52.178;21.016;2022-10-26T16:04:39;12.60;99.90
17033;DHT22;63208;52.178;21.016;2022-10-26T16:07:07;12.70;99.90
17033;DHT22;63208;52.178;21.016;2022-10-26T16:12:40;12.60;99.90
17033;DHT22;63208;52.178;21.016;2022-10-26T16:15:09;11.90;99.90
17033;DHT22;63208;52.178;21.016;2022-10-26T16:17:40;12.50;99.90
17033;DHT22;63208;52.178;21.016;2022-10-26T16:20:23;12.50;99.90
17033;DHT22;63208;52.178;21.016;2022-10-26T16:25:31;12.40;99.90
17033;DHT22;63208;52.178;21.016;2022-10-26T16:27:58;12.40;99.90
17033;DHT22;63208;52.178;21.016;2022-10-26T16:30:27;12.50;99.90
17033;DHT22;63208;52.178;21.016;2022-10-26T16:32:54;12.50;99.90
17033;DHT22;63208;52.178;21.016;2022-10-26T16:35:21;12.50;99.90
17033;DHT22;63208;52.178;21.016;2022-10-26T16:37:48;12.50;99.90
17033;DHT22;63208;52.178;21.016;2022-10-26T16:40:14;12.40;99.90
17033;DHT22;63208;52.178;21.016;2022-10-26T16:42:41;12.30;99.90
17033;DHT22;63208;52.178;21.016;2022-10-26T16:45:09;12.40;99.90
17033;DHT22;63208;52.178;21.016;2022-10-26T16:47:37;12.40;99.90
17033;DHT22;63208;52.178;21.016;2022-10-26T16:50:05;12.40;99.90
17033;DHT22;63208;52.178;21.016;2022-10-26T16:52:32;12.30;99.90
17033;DHT22;63208;52.178;21.016;2022-10-26T16:54:59;12.30;99.90
17033;DHT22;63208;52.178;21.016;2022-10-26T16:57:26;12.20;99.90
17033;DHT22;63208;52.178;21.016;2022-10-26T16:59:53;12.20;99.90
17033;DHT22;63208;52.178;21.016;2022-10-26T17:02:22;12.20;99.90
17033;DHT22;63208;52.178;21.016;2022-10-26T17:05:03;12.30;99.90
17033;DHT22;63208;52.178;21.016;2022-10-26T17:07:30;12.20;99.90